Time;durP1;ratioP1;P1;durP2;ratioP2;P2;SDS_P1;SDS_P2;PMS_P1;PMS_P2;Temp;Humidity;BMP_temperature;BMP_pressure;BME280_temperature;BME280_humidity;BME280_pressure;Samples;Min_cycle;Max_cycle;Signal;HPM_P1;HPM_P2
2022/06/15 00:00:31;;;;;;;8.87;5.17;;;14.80;88.00;;;;;;5031365;28;20838;-52
2022/06/15 00:02:58;;;;;;;11.33;5.10;;;14.90;88.10;;;;;;5030115;28;20437;-52
2022/06/15 00:05:26;;;;;;;10.67;6.03;;;15.10;88.60;;;;;;5031666;28;20435;-52
2022/06/15 00:07:53;;;;;;;8.83;4.40;;;15.00;88.80;;;;;;5032448;28;20807;-52
2022/06/15 00:10:19;;;;;;;10.03;5.53;;;14.80;89.00;;;;;;5035260;28;21026;-52
2022/06/15 00:12:46;;;;;;;8.87;5.20;;;14.80;89.00;;;;;;5035647;28;20431;-52
2022/06/15 00:15:13;;;;;;;9.60;5.97;;;14.70;88.90;;;;;;5034714;28;20447;-52
2022/06/15 00:17:40;;;;;;;7.50;4.97;;;14.80;89.30;;;;;;5035833;28;20504;-51
2022/06/15 00:20:09;;;;;;;10.20;5.80;;;14.90;89.40;;;;;;5035158;28;20819;-52
2022/06/15 00:22:36;;;;;;;9.70;5.33;;;14.90;89.60;;;;;;5035608;28;20440;-52
2022/06/15 00:25:03;;;;;;;14.27;6.70;;;14.80;89.70;;;;;;5035548;28;20435;-52
2022/06/15 00:27:30;;;;;;;6.07;5.30;;;14.90;89.90;;;;;;5035598;28;20445;-52
2022/06/15 00:29:57;;;;;;;6.87;4.70;;;15.10;90.10;;;;;;5033566;28;20501;-51
2022/06/15 00:32:23;;;;;;;11.57;6.23;;;15.10;90.30;;;;;;5035428;28;20442;-52
2022/06/15 00:34:50;;;;;;;8.83;5.43;;;14.90;90.20;;;;;;5035273;28;20530;-52
2022/06/15 00:37:16;;;;;;;12.83;5.50;;;14.70;90.10;;;;;;5035484;28;20431;-52
2022/06/15 00:39:45;;;;;;;14.20;5.77;;;14.60;90.10;;;;;;5057634;22;20501;-43
2022/06/15 00:42:13;;;;;;;13.40;5.37;;;14.90;90.30;;;;;;5040466;28;20502;-43
2022/06/15 00:44:42;;;;;;;6.57;4.23;;;14.80;90.30;;;;;;5038543;28;20454;-43
2022/06/15 00:47:15;;;;;;;9.00;5.27;;;14.80;90.40;;;;;;5036750;28;20442;-44
2022/06/15 00:49:45;;;;;;;9.50;5.23;;;14.70;90.50;;;;;;5034269;28;21002;-45
2022/06/15 00:52:14;;;;;;;10.73;6.23;;;14.80;90.60;;;;;;5036074;28;20936;-44
2022/06/15 00:54:44;;;;;;;6.73;5.33;;;14.90;90.80;;;;;;5035852;28;20795;-45
2022/06/15 00:57:12;;;;;;;14.20;5.67;;;14.60;90.50;;;;;;5035813;28;20435;-45
2022/06/15 00:59:47;;;;;;;9.63;6.10;;;14.80;90.70;;;;;;5035349;28;20458;-45
2022/06/15 01:02:13;;;;;;;9.10;5.80;;;14.80;90.90;;;;;;5034242;28;20435;-45
2022/06/15 01:04:44;;;;;;;7.23;5.67;;;14.60;90.90;;;;;;5035858;28;20435;-45
2022/06/15 01:07:25;;;;;;;12.87;6.37;;;14.90;91.10;;;;;;5034431;28;20802;-45
2022/06/15 01:10:01;;;;;;;9.07;5.93;;;14.70;91.10;;;;;;5035173;28;20481;-44
2022/06/15 01:12:39;;;;;;;14.07;6.07;;;14.80;91.20;;;;;;5034617;28;20447;-45
2022/06/15 01:15:15;;;;;;;6.63;5.23;;;14.80;91.30;;;;;;5034687;28;20459;-45
2022/06/15 01:18:01;;;;;;;12.00;5.70;;;14.40;91.30;;;;;;5034657;28;20461;-44
2022/06/15 01:20:51;;;;;;;8.80;4.87;;;14.60;91.60;;;;;;5033299;28;20467;-44
2022/06/15 01:24:02;;;;;;;12.27;5.73;;;14.80;91.60;;;;;;5034140;28;20454;-45
2022/06/15 01:26:55;;;;;;;12.10;5.87;;;14.40;91.60;;;;;;5034721;28;20807;-42
2022/06/15 01:30:07;;;;;;;8.00;5.10;;;14.50;91.70;;;;;;5035418;28;20536;-43
2022/06/15 01:32:45;;;;;;;8.17;5.60;;;14.50;91.90;;;;;;5008328;28;20455;-43
2022/06/15 01:35:23;;;;;;;9.17;5.80;;;14.60;92.00;;;;;;5034669;28;20445;-44
2022/06/15 01:38:00;;;;;;;12.00;6.43;;;14.40;92.10;;;;;;5035651;28;20438;-43
2022/06/15 01:40:37;;;;;;;11.13;5.60;;;14.40;92.20;;;;;;5033667;28;20484;-43
2022/06/15 01:43:08;;;;;;;9.70;6.00;;;14.50;92.30;;;;;;5035888;28;20435;-43
2022/06/15 01:45:38;;;;;;;6.60;5.00;;;14.30;92.40;;;;;;5033938;28;20470;-43
2022/06/15 01:48:11;;;;;;;7.53;5.37;;;14.40;92.40;;;;;;5034148;28;20459;-44
2022/06/15 01:50:45;;;;;;;7.70;5.60;;;14.30;92.40;;;;;;5034218;28;20495;-43
2022/06/15 01:53:16;;;;;;;7.23;4.83;;;14.30;92.50;;;;;;5036017;28;20442;-44
2022/06/15 01:55:48;;;;;;;7.67;5.60;;;14.20;92.60;;;;;;5034424;28;20513;-44
2022/06/15 01:58:17;;;;;;;6.60;5.67;;;14.10;92.80;;;;;;5034088;28;20527;-44
2022/06/15 02:00:53;;;;;;;8.90;5.37;;;14.40;92.90;;;;;;5034736;28;21013;-44
2022/06/15 02:03:27;;;;;;;6.93;5.30;;;14.30;92.90;;;;;;5034155;28;20453;-43
2022/06/15 02:06:01;;;;;;;10.10;6.63;;;14.20;93.00;;;;;;5033619;28;20543;-44
2022/06/15 02:08:35;;;;;;;7.23;5.60;;;14.20;93.20;;;;;;5033331;28;20445;-43
2022/06/15 02:11:09;;;;;;;7.80;5.60;;;14.20;93.40;;;;;;5034859;28;20981;-43
2022/06/15 02:13:46;;;;;;;8.97;6.00;;;14.20;93.30;;;;;;5034562;28;20465;-43
2022/06/15 02:16:20;;;;;;;8.13;5.50;;;14.10;93.50;;;;;;5035079;28;20814;-43
2022/06/15 02:18:50;;;;;;;9.87;5.57;;;14.10;93.40;;;;;;5034496;28;20927;-44
2022/06/15 02:21:19;;;;;;;7.80;5.20;;;14.00;93.60;;;;;;5036186;28;20492;-44
2022/06/15 02:23:50;;;;;;;12.30;5.57;;;13.90;93.60;;;;;;5035593;28;20450;-43
2022/06/15 02:26:18;;;;;;;11.23;6.03;;;14.10;93.90;;;;;;5033097;28;20476;-44
2022/06/15 02:28:51;;;;;;;11.03;5.57;;;13.40;93.60;;;;;;5033116;28;20486;-44
2022/06/15 02:31:17;;;;;;;7.10;5.43;;;13.70;94.10;;;;;;5033256;28;20952;-44
2022/06/15 02:33:51;;;;;;;10.73;4.90;;;13.90;94.10;;;;;;5035029;28;20554;-44
2022/06/15 02:36:18;;;;;;;11.23;5.90;;;13.90;94.30;;;;;;5039247;28;20455;-43
2022/06/15 02:38:49;;;;;;;8.80;5.83;;;13.90;94.40;;;;;;5038947;28;20985;-44
2022/06/15 02:41:17;;;;;;;9.70;5.60;;;13.90;94.50;;;;;;5039870;28;20443;-43
2022/06/15 02:43:45;;;;;;;11.03;4.93;;;13.80;94.60;;;;;;5036456;28;20463;-44
2022/06/15 02:46:14;;;;;;;11.70;5.00;;;14.10;94.90;;;;;;5033110;28;20789;-44
2022/06/15 02:48:42;;;;;;;7.57;5.80;;;13.80;94.60;;;;;;5032899;28;20442;-43
2022/06/15 02:51:18;;;;;;;9.20;5.10;;;13.80;94.80;;;;;;5032796;28;20503;-43
2022/06/15 02:53:55;;;;;;;11.47;5.60;;;13.50;94.90;;;;;;5032968;28;20541;-44
2022/06/15 02:56:23;;;;;;;10.90;6.80;;;13.80;95.10;;;;;;5033402;28;20454;-43
2022/06/15 02:58:52;;;;;;;11.87;6.00;;;13.70;95.20;;;;;;5032259;28;20449;-44
2022/06/15 03:01:20;;;;;;;9.37;5.70;;;13.60;95.20;;;;;;5032600;28;20524;-44
2022/06/15 03:03:48;;;;;;;12.00;5.73;;;13.80;95.30;;;;;;5032617;28;20538;-44
2022/06/15 03:06:27;;;;;;;9.50;5.80;;;13.80;95.40;;;;;;5032900;28;20455;-44
2022/06/15 03:08:58;;;;;;;11.23;6.00;;;13.70;95.30;;;;;;5032377;28;20461;-44
2022/06/15 03:11:31;;;;;;;17.17;5.87;;;13.70;95.40;;;;;;5032907;28;20813;-44
2022/06/15 03:14:05;;;;;;;10.70;5.70;;;13.70;95.60;;;;;;5033963;28;20430;-44
2022/06/15 03:16:33;;;;;;;14.97;5.90;;;13.70;95.40;;;;;;5032498;28;20464;-44
2022/06/15 03:19:01;;;;;;;9.40;6.03;;;13.70;95.60;;;;;;5032139;28;20495;-44
2022/06/15 03:21:29;;;;;;;9.53;6.10;;;13.70;95.60;;;;;;5032505;28;20860;-44
2022/06/15 03:23:56;;;;;;;10.00;5.70;;;13.70;95.60;;;;;;5032136;28;20510;-44
2022/06/15 03:26:24;;;;;;;10.13;5.63;;;14.00;95.80;;;;;;5032367;28;20490;-44
2022/06/15 03:28:51;;;;;;;11.80;5.90;;;13.80;95.70;;;;;;5031540;28;20449;-44
2022/06/15 03:31:19;;;;;;;9.30;5.80;;;14.00;95.80;;;;;;5032188;28;20492;-44
2022/06/15 03:33:46;;;;;;;10.17;5.80;;;13.80;95.80;;;;;;5031832;28;20550;-44
2022/06/15 03:36:18;;;;;;;12.00;6.20;;;13.90;95.90;;;;;;5032189;28;20463;-44
2022/06/15 03:38:47;;;;;;;13.57;6.20;;;13.80;95.80;;;;;;5031232;28;20455;-44
2022/06/15 03:41:19;;;;;;;13.90;6.20;;;14.10;96.00;;;;;;5032047;28;20521;-45
2022/06/15 03:43:46;;;;;;;10.07;5.53;;;14.10;96.10;;;;;;5032155;28;20489;-44
2022/06/15 03:46:13;;;;;;;15.00;5.93;;;14.00;95.90;;;;;;5031637;28;20428;-44
2022/06/15 03:48:41;;;;;;;7.83;5.80;;;14.20;96.00;;;;;;5031521;28;20805;-44
2022/06/15 03:51:08;;;;;;;12.10;6.27;;;13.80;95.70;;;;;;5031639;28;20512;-44
2022/06/15 03:53:46;;;;;;;14.23;5.67;;;14.20;95.90;;;;;;5031677;28;21042;-44
2022/06/15 03:56:13;;;;;;;9.67;4.97;;;14.10;95.80;;;;;;5032031;28;20456;-44
2022/06/15 03:58:40;;;;;;;6.83;5.37;;;14.40;95.90;;;;;;5031420;28;20504;-44
2022/06/15 04:01:07;;;;;;;8.10;5.10;;;14.30;96.10;;;;;;5031873;28;20474;-44
2022/06/15 04:03:33;;;;;;;16.00;6.10;;;14.20;95.70;;;;;;5031267;28;20468;-43
2022/06/15 04:06:23;;;;;;;10.83;5.63;;;14.60;95.70;;;;;;5027073;28;20460;-44
2022/06/15 04:08:52;;;;;;;10.07;5.40;;;14.50;95.40;;;;;;5031174;28;20454;-44
2022/06/15 04:14:23;;;;;;;9.03;5.23;;;15.00;95.30;;;;;;5031886;28;20850;-43
2022/06/15 04:16:59;;;;;;;9.70;5.70;;;15.20;95.10;;;;;;5032214;28;20446;-44
2022/06/15 04:20:31;;;;;;;11.07;6.30;;;15.10;94.70;;;;;;5031522;28;21022;-45
2022/06/15 04:22:33;;;;;;;10.37;6.53;;;15.20;94.50;;;;;;5031821;28;21035;-44
2022/06/15 04:25:01;;;;;;;10.43;6.07;;;15.60;94.30;;;;;;5033009;28;20450;-45
2022/06/15 04:27:30;;;;;;;9.80;5.77;;;15.60;94.00;;;;;;5032684;28;20462;-45
2022/06/15 04:29:59;;;;;;;9.43;5.00;;;16.00;93.80;;;;;;5033018;28;20486;-44
2022/06/15 04:32:25;;;;;;;11.57;5.40;;;16.10;93.30;;;;;;5031787;28;21024;-44
2022/06/15 04:34:54;;;;;;;9.60;5.10;;;16.30;93.10;;;;;;5033435;28;20513;-46
2022/06/15 04:37:22;;;;;;;8.63;5.10;;;16.40;92.80;;;;;;5032411;28;20443;-44
2022/06/15 04:39:52;;;;;;;9.27;5.40;;;16.80;92.70;;;;;;5032097;28;20483;-44
2022/06/15 04:42:22;;;;;;;10.07;5.70;;;16.80;92.20;;;;;;5032793;28;20473;-44
2022/06/15 04:44:49;;;;;;;9.93;5.00;;;17.10;91.70;;;;;;5034364;28;20456;-44
2022/06/15 04:47:15;;;;;;;14.00;5.80;;;16.70;90.90;;;;;;5034156;28;20427;-44
2022/06/15 04:49:43;;;;;;;10.87;5.90;;;17.40;90.70;;;;;;5034053;28;20545;-43
2022/06/15 04:52:10;;;;;;;12.80;5.70;;;17.60;90.40;;;;;;5034932;28;20451;-43
2022/06/15 04:54:37;;;;;;;8.80;5.43;;;17.20;90.10;;;;;;5035942;28;20821;-43
2022/06/15 04:57:05;;;;;;;10.50;5.50;;;17.70;89.90;;;;;;5035908;28;20491;-45
2022/06/15 04:59:33;;;;;;;9.53;4.50;;;18.10;89.40;;;;;;5035370;28;20947;-44
2022/06/15 05:02:00;;;;;;;12.27;5.80;;;18.30;89.90;;;;;;5035509;28;20471;-44
2022/06/15 05:04:27;;;;;;;9.50;5.23;;;18.50;88.70;;;;;;5035741;28;20446;-44
2022/06/15 05:06:54;;;;;;;7.20;4.90;;;18.70;88.10;;;;;;5035580;28;20548;-44
2022/06/15 05:09:22;;;;;;;10.20;5.03;;;18.90;87.40;;;;;;5034539;28;20852;-43
2022/06/15 05:11:50;;;;;;;7.70;4.43;;;19.10;86.90;;;;;;5034769;28;20481;-44
2022/06/15 05:14:17;;;;;;;8.70;4.43;;;18.90;85.70;;;;;;5036715;28;20788;-44
2022/06/15 05:16:48;;;;;;;8.57;4.80;;;19.00;84.60;;;;;;5035248;28;20500;-45
2022/06/15 05:19:23;;;;;;;6.50;3.37;;;19.20;84.00;;;;;;5034716;28;20873;-44
2022/06/15 05:21:51;;;;;;;6.93;4.60;;;19.00;82.80;;;;;;5034898;28;20470;-44
2022/06/15 05:24:20;;;;;;;8.77;5.13;;;19.00;82.80;;;;;;5035086;28;20469;-43
2022/06/15 05:26:52;;;;;;;5.13;3.37;;;19.30;83.20;;;;;;5034934;28;20454;-45
2022/06/15 05:29:18;;;;;;;5.97;4.00;;;19.30;82.20;;;;;;5035295;28;20450;-45
2022/06/15 05:31:51;;;;;;;6.03;3.50;;;19.70;81.00;;;;;;5036408;28;20813;-45
2022/06/15 05:34:19;;;;;;;5.87;2.80;;;19.40;80.30;;;;;;5035071;28;20509;-45
2022/06/15 05:36:45;;;;;;;6.30;3.17;;;19.50;79.20;;;;;;5034341;28;20978;-45
2022/06/15 05:39:13;;;;;;;6.30;2.60;;;19.30;77.90;;;;;;5033488;28;20509;-44
2022/06/15 05:41:43;;;;;;;6.87;2.57;;;19.50;78.60;;;;;;5034019;28;20442;-45
2022/06/15 05:44:11;;;;;;;6.57;2.70;;;19.80;77.20;;;;;;5034299;28;20463;-45
2022/06/15 05:46:41;;;;;;;8.47;3.83;;;19.60;76.70;;;;;;5034079;28;20549;-46
2022/06/15 05:49:29;;;;;;;5.63;3.40;;;19.60;76.40;;;;;;5033614;28;20483;-46
2022/06/15 05:51:57;;;;;;;6.47;3.40;;;19.40;76.00;;;;;;5034272;28;20504;-44
2022/06/15 05:54:25;;;;;;;4.50;2.40;;;19.70;76.00;;;;;;5033779;28;20469;-44
2022/06/15 05:56:52;;;;;;;9.63;3.10;;;19.60;75.40;;;;;;5035038;28;20439;-45
2022/06/15 05:59:19;;;;;;;6.37;2.33;;;19.60;74.80;;;;;;5034473;28;20455;-44
2022/06/15 06:01:46;;;;;;;6.57;2.90;;;19.80;74.50;;;;;;5035036;28;20458;-44
2022/06/15 06:04:14;;;;;;;8.30;2.83;;;20.20;74.60;;;;;;5034617;28;20844;-44
2022/06/15 06:06:42;;;;;;;4.70;2.77;;;19.90;73.70;;;;;;5032663;28;20477;-46
2022/06/15 06:09:09;;;;;;;4.43;2.50;;;19.60;72.60;;;;;;5034716;28;20821;-45
2022/06/15 06:11:36;;;;;;;6.00;2.30;;;19.90;72.70;;;;;;5035570;28;20489;-46
2022/06/15 06:14:04;;;;;;;3.97;2.67;;;19.90;72.50;;;;;;5036307;28;20431;-46
2022/06/15 06:16:30;;;;;;;6.23;2.40;;;20.20;71.90;;;;;;5034751;28;20949;-45
2022/06/15 06:18:57;;;;;;;7.37;2.43;;;20.10;71.60;;;;;;5034694;28;20513;-44
2022/06/15 06:21:24;;;;;;;7.67;2.50;;;20.40;71.10;;;;;;5034665;28;20441;-44
2022/06/15 06:23:52;;;;;;;4.60;2.00;;;20.20;69.40;;;;;;5034785;28;20439;-45
2022/06/15 06:26:21;;;;;;;3.60;1.80;;;20.00;68.10;;;;;;5035300;28;20440;-45
2022/06/15 06:28:48;;;;;;;4.57;2.60;;;20.50;68.50;;;;;;5034677;28;20471;-45
2022/06/15 06:31:14;;;;;;;7.00;1.60;;;20.50;67.70;;;;;;5034699;28;20551;-45
2022/06/15 06:33:41;;;;;;;4.57;1.73;;;20.50;67.10;;;;;;5035231;28;20436;-45
2022/06/15 06:36:15;;;;;;;4.03;1.90;;;20.70;66.70;;;;;;5034740;28;20432;-43
2022/06/15 06:38:42;;;;;;;9.07;3.40;;;20.90;65.80;;;;;;5034784;28;20935;-45
2022/06/15 06:41:11;;;;;;;8.73;2.60;;;21.10;65.50;;;;;;5038408;22;20510;-54
2022/06/15 06:43:38;;;;;;;3.33;1.40;;;21.30;65.00;;;;;;5012180;28;20437;-54
2022/06/15 06:46:05;;;;;;;4.70;1.60;;;21.20;64.10;;;;;;5012397;28;20441;-52
2022/06/15 06:48:32;;;;;;;4.67;2.00;;;21.50;64.10;;;;;;5011929;28;20461;-53
2022/06/15 06:50:59;;;;;;;4.80;1.63;;;21.20;62.90;;;;;;5012562;28;20490;-53
2022/06/15 06:53:25;;;;;;;7.60;2.50;;;21.50;62.40;;;;;;5012023;28;20911;-53
2022/06/15 06:55:52;;;;;;;3.57;1.47;;;21.60;62.20;;;;;;5011967;28;20447;-53
2022/06/15 06:58:20;;;;;;;4.83;2.00;;;21.60;62.00;;;;;;5012395;28;20431;-53
2022/06/15 07:00:47;;;;;;;4.40;2.00;;;21.60;61.40;;;;;;5012301;28;20470;-53
2022/06/15 07:03:13;;;;;;;4.57;1.77;;;21.60;61.30;;;;;;5012332;28;20439;-52
2022/06/15 07:05:40;;;;;;;5.27;1.63;;;21.60;61.10;;;;;;5011765;28;20457;-55
2022/06/15 07:08:12;;;;;;;5.53;1.43;;;22.00;61.60;;;;;;5011801;28;20449;-53
2022/06/15 07:10:39;;;;;;;4.90;1.60;;;21.90;61.30;;;;;;5011471;28;20487;-54
2022/06/15 07:13:06;;;;;;;4.80;1.67;;;21.90;61.00;;;;;;5012663;28;20435;-52
2022/06/15 07:15:34;;;;;;;3.60;1.63;;;22.00;60.40;;;;;;5012021;28;20443;-53
2022/06/15 07:18:01;;;;;;;4.73;1.63;;;22.00;60.60;;;;;;4993860;28;20454;-53
2022/06/15 07:20:29;;;;;;;4.57;2.10;;;21.70;60.00;;;;;;5011620;28;20514;-54
2022/06/15 07:22:57;;;;;;;5.63;2.03;;;21.90;60.30;;;;;;5012298;28;20486;-54
2022/06/15 07:25:24;;;;;;;8.23;2.23;;;21.60;60.40;;;;;;4994685;28;20466;-51
2022/06/15 07:27:51;;;;;;;6.43;2.20;;;21.60;60.70;;;;;;4995052;28;20451;-52
2022/06/15 07:30:25;;;;;;;3.97;1.40;;;21.50;60.50;;;;;;5011794;28;20987;-53
2022/06/15 07:32:54;;;;;;;5.60;1.70;;;21.60;60.70;;;;;;5012671;28;20431;-52
2022/06/15 07:35:23;;;;;;;5.13;1.93;;;21.40;60.80;;;;;;5012067;28;20904;-53
2022/06/15 07:37:50;;;;;;;5.17;1.90;;;21.30;60.80;;;;;;5011908;28;20435;-52
2022/06/15 07:40:19;;;;;;;4.07;2.00;;;21.10;60.20;;;;;;5011004;28;20966;-52
2022/06/15 07:42:46;;;;;;;5.10;1.87;;;20.90;60.30;;;;;;5011468;28;20438;-54
2022/06/15 07:45:15;;;;;;;4.20;1.57;;;21.00;60.30;;;;;;5012214;28;20809;-53
2022/06/15 07:50:28;;;;;;;3.90;1.30;;;20.90;60.70;;;;;;4993020;28;20469;-53
2022/06/15 07:52:55;;;;;;;2.90;1.57;;;20.80;60.20;;;;;;5011507;28;20449;-53
2022/06/15 07:55:24;;;;;;;4.07;1.40;;;21.00;60.80;;;;;;5011570;28;20434;-55
2022/06/15 07:57:51;;;;;;;4.53;1.80;;;21.00;60.90;;;;;;5011581;28;20441;-54
2022/06/15 08:00:20;;;;;;;3.00;1.37;;;20.90;60.20;;;;;;5011108;28;20459;-54
2022/06/15 08:02:47;;;;;;;7.93;1.73;;;20.90;60.40;;;;;;5011534;28;20449;-53
2022/06/15 08:05:14;;;;;;;4.20;2.00;;;20.80;60.30;;;;;;5010953;28;20437;-52
2022/06/15 08:07:44;;;;;;;5.13;1.80;;;20.90;60.50;;;;;;4993522;28;20449;-53
2022/06/15 08:10:12;;;;;;;4.10;1.70;;;20.80;59.90;;;;;;5011058;28;20454;-53
2022/06/15 08:12:39;;;;;;;3.80;2.17;;;21.20;60.30;;;;;;4993954;28;20637;-54
2022/06/15 08:15:07;;;;;;;2.93;1.80;;;20.70;59.60;;;;;;5011505;28;20438;-53
2022/06/15 08:17:37;;;;;;;2.87;1.23;;;21.00;60.00;;;;;;5011008;28;20449;-53
2022/06/15 08:20:08;;;;;;;7.60;1.97;;;21.20;60.30;;;;;;5010652;28;20450;-54
2022/06/15 08:22:37;;;;;;;7.90;1.63;;;21.00;60.20;;;;;;5011993;28;20427;-55
2022/06/15 08:25:07;;;;;;;10.40;1.70;;;21.00;60.40;;;;;;5011399;28;20445;-53
2022/06/15 08:27:36;;;;;;;3.33;2.10;;;20.90;60.30;;;;;;4993940;28;20458;-53
2022/06/15 08:30:03;;;;;;;4.83;1.57;;;21.00;60.80;;;;;;5013590;28;20461;-53
2022/06/15 08:32:29;;;;;;;3.20;1.67;;;21.10;60.50;;;;;;5015166;28;20505;-53
2022/06/15 08:34:56;;;;;;;12.77;2.33;;;21.00;60.40;;;;;;5014468;28;20559;-53
2022/06/15 08:37:23;;;;;;;4.40;1.73;;;21.20;60.30;;;;;;5004847;28;20453;-53
2022/06/15 08:39:49;;;;;;;5.60;2.20;;;21.10;60.80;;;;;;5006720;28;20515;-54
2022/06/15 08:42:26;;;;;;;5.60;1.77;;;21.40;59.00;;;;;;5000826;28;20191;-53
2022/06/15 08:45:02;;;;;;;5.23;3.87;;;21.40;59.00;;;;;;5003934;28;20445;-54
2022/06/15 08:47:50;;;;;;;3.50;1.40;;;21.10;59.10;;;;;;5014222;28;20446;-54
2022/06/15 08:50:24;;;;;;;4.60;2.33;;;21.10;59.20;;;;;;4995852;28;20476;-54
2022/06/15 08:52:59;;;;;;;3.67;1.50;;;21.30;59.60;;;;;;5014117;28;20478;-53
2022/06/15 08:55:36;;;;;;;7.00;2.40;;;21.50;59.70;;;;;;5014313;28;20460;-54
2022/06/15 08:58:11;;;;;;;4.67;1.90;;;21.30;59.60;;;;;;5014386;28;20441;-52
2022/06/15 09:00:40;;;;;;;5.43;1.87;;;21.10;59.50;;;;;;5014244;28;20457;-53
2022/06/15 09:03:18;;;;;;;4.10;2.00;;;21.30;59.70;;;;;;5014462;28;20435;-53
2022/06/15 09:05:51;;;;;;;4.50;2.30;;;21.00;59.40;;;;;;5013846;28;20942;-55
2022/06/15 09:08:41;;;;;;;6.20;2.60;;;21.30;59.70;;;;;;4996357;28;20960;-53
2022/06/15 09:11:23;;;;;;;4.93;1.80;;;21.30;59.60;;;;;;5013586;28;20994;-52
2022/06/15 09:14:03;;;;;;;4.97;2.00;;;21.20;59.60;;;;;;5014559;28;20433;-52
2022/06/15 09:16:37;;;;;;;3.23;1.40;;;21.10;59.20;;;;;;4994888;28;20924;-53
2022/06/15 09:19:08;;;;;;;11.00;2.70;;;21.30;59.50;;;;;;5013336;28;20438;-54
2022/06/15 09:21:38;;;;;;;4.97;1.70;;;21.40;59.70;;;;;;4994571;28;20475;-53
2022/06/15 09:24:10;;;;;;;4.60;1.57;;;21.30;59.30;;;;;;4994354;28;20436;-53
2022/06/15 09:26:42;;;;;;;5.00;1.83;;;21.50;59.50;;;;;;4994320;28;20539;-53
2022/06/15 09:29:16;;;;;;;6.93;1.87;;;21.50;59.50;;;;;;4993584;28;20454;-53
2022/06/15 09:31:49;;;;;;;4.67;2.20;;;21.60;59.40;;;;;;4994287;28;20999;-54
2022/06/15 09:34:21;;;;;;;6.70;1.77;;;21.40;59.20;;;;;;5006489;28;20485;-52
2022/06/15 09:36:51;;;;;;;5.07;2.10;;;21.70;59.10;;;;;;5014052;28;20440;-53
2022/06/15 09:39:19;;;;;;;5.70;1.93;;;21.60;58.90;;;;;;5013372;28;20736;-54
2022/06/15 09:41:50;;;;;;;5.50;1.57;;;21.50;58.70;;;;;;5013468;28;20458;-53
2022/06/15 09:44:31;;;;;;;5.40;1.90;;;21.70;58.80;;;;;;5013682;28;20501;-55
2022/06/15 09:47:06;;;;;;;4.33;2.23;;;22.00;58.70;;;;;;5013037;28;20476;-52
2022/06/15 09:49:48;;;;;;;4.73;1.70;;;21.80;58.60;;;;;;4994952;28;20474;-53
2022/06/15 09:52:26;;;;;;;5.30;2.35;;;21.70;58.50;;;;;;5012913;28;20447;-55
2022/06/15 09:55:06;;;;;;;3.97;2.00;;;22.10;58.60;;;;;;5012912;28;20210;-52
2022/06/15 09:57:32;;;;;;;4.13;2.00;;;21.90;58.50;;;;;;4995560;28;20468;-53
2022/06/15 10:00:03;;;;;;;4.50;2.03;;;21.70;58.50;;;;;;5012643;28;20459;-52
2022/06/15 10:02:40;;;;;;;3.50;2.00;;;21.40;58.40;;;;;;5013127;28;20921;-52
2022/06/15 10:05:19;;;;;;;6.30;2.00;;;22.10;58.80;;;;;;5012712;28;21035;-53
2022/06/15 10:07:46;;;;;;;3.80;1.60;;;21.80;58.40;;;;;;5012737;28;20439;-53
2022/06/15 10:10:19;;;;;;;7.70;1.90;;;22.00;58.60;;;;;;5012231;28;20463;-53
2022/06/15 10:12:58;;;;;;;4.00;1.70;;;21.90;58.50;;;;;;5012701;28;20484;-52
2022/06/15 10:15:48;;;;;;;5.53;2.37;;;22.20;58.70;;;;;;5011979;28;20477;-53
2022/06/15 10:18:20;;;;;;;6.27;1.90;;;22.00;58.50;;;;;;5012247;28;20440;-53
2022/06/15 10:20:58;;;;;;;6.47;2.07;;;22.00;58.20;;;;;;5011986;28;20552;-53
2022/06/15 10:23:34;;;;;;;6.53;1.90;;;22.10;58.10;;;;;;5012053;28;20439;-51
2022/06/15 10:26:01;;;;;;;3.50;1.97;;;22.10;58.00;;;;;;5011237;28;20447;-52
2022/06/15 10:28:34;;;;;;;3.70;2.23;;;22.20;58.10;;;;;;5010439;28;20447;-51
2022/06/15 10:31:07;;;;;;;3.83;2.10;;;22.20;58.00;;;;;;5011951;28;20526;-52
2022/06/15 10:33:40;;;;;;;4.50;2.17;;;21.90;58.00;;;;;;5012705;28;20479;-53
2022/06/15 10:36:20;;;;;;;5.80;2.20;;;22.00;58.00;;;;;;5012716;28;20544;-52
2022/06/15 10:38:51;;;;;;;8.50;2.30;;;22.40;58.00;;;;;;5012213;28;20443;-53
2022/06/15 10:44:02;;;;;;;5.10;2.20;;;22.30;57.80;;;;;;5012456;28;20447;-52
2022/06/15 10:46:50;;;;;;;6.00;2.40;;;22.50;58.00;;;;;;5012285;28;20452;-52
2022/06/15 10:49:16;;;;;;;7.80;2.23;;;22.40;57.20;;;;;;5011623;28;20446;-52
2022/06/15 10:51:44;;;;;;;5.73;1.97;;;22.20;57.40;;;;;;5011330;28;20991;-51
2022/06/15 10:54:34;;;;;;;9.30;2.47;;;22.50;57.50;;;;;;4994261;28;20455;-52
2022/06/15 11:03:09;;;;;;;7.43;3.33;;;22.60;57.40;;;;;;4980426;28;20448;-52
2022/06/15 11:05:36;;;;;;;5.03;2.20;;;22.80;57.30;;;;;;5011089;28;20456;-52
2022/06/15 11:08:07;;;;;;;7.50;2.53;;;22.50;57.10;;;;;;4997812;28;20468;-52
2022/06/15 11:10:37;;;;;;;6.30;2.73;;;22.70;56.90;;;;;;5012305;28;20491;-52
2022/06/15 11:13:06;;;;;;;4.80;2.40;;;22.70;57.10;;;;;;5011661;28;21027;-52
2022/06/15 11:18:33;;;;;;;5.03;2.73;;;23.40;57.60;;;;;;4988687;28;20534;-51
2022/06/15 11:21:06;;;;;;;8.68;2.80;;;23.10;57.20;;;;;;5012608;28;20802;-51
2022/06/15 11:23:45;;;;;;;9.25;3.60;;;23.60;57.30;;;;;;5015317;28;20427;-52
2022/06/15 11:29:09;;;;;;;8.17;3.47;;;23.40;55.90;;;;;;4995357;28;20459;-51
2022/06/15 11:31:38;;;;;;;4.17;3.00;;;23.70;55.90;;;;;;4991659;28;20510;-51
2022/06/15 11:34:12;;;;;;;7.17;2.40;;;23.30;55.30;;;;;;5008691;28;20454;-51
2022/06/15 11:36:50;;;;;;;6.60;3.37;;;23.50;55.20;;;;;;5012798;28;20444;-51
2022/06/15 11:39:23;;;;;;;7.03;3.27;;;23.20;54.90;;;;;;5017242;28;20531;-51
2022/06/15 11:41:52;;;;;;;6.32;2.60;;;23.50;55.10;;;;;;5010432;28;20978;-50
2022/06/15 11:44:23;;;;;;;7.47;2.10;;;23.50;54.40;;;;;;5011956;28;20208;-51
2022/06/15 11:47:02;;;;;;;6.60;3.20;;;23.60;54.60;;;;;;4993694;28;20473;-51
2022/06/15 11:49:37;;;;;;;5.07;2.60;;;23.50;54.40;;;;;;5010813;28;20461;-51
2022/06/15 11:52:21;;;;;;;8.67;2.53;;;23.20;54.40;;;;;;5011136;28;20478;-51
2022/06/15 11:55:02;;;;;;;5.37;2.80;;;23.40;54.40;;;;;;5011357;28;20789;-51
2022/06/15 11:57:37;;;;;;;6.10;3.17;;;23.50;54.20;;;;;;5011067;28;20439;-51
2022/06/15 12:00:19;;;;;;;5.30;2.10;;;23.20;54.40;;;;;;5010884;28;20922;-51
2022/06/15 12:03:13;;;;;;;5.67;2.23;;;23.50;55.10;;;;;;5010455;28;20496;-51
2022/06/15 12:05:46;;;;;;;6.70;2.73;;;23.50;55.10;;;;;;5006028;28;20508;-51
2022/06/15 12:08:27;;;;;;;7.07;2.67;;;23.50;55.10;;;;;;5011272;28;20450;-52
2022/06/15 12:11:00;;;;;;;3.83;2.23;;;23.50;55.20;;;;;;5011564;28;20459;-51
2022/06/15 12:13:50;;;;;;;4.20;2.83;;;23.20;55.10;;;;;;5011174;28;20481;-51
2022/06/15 12:16:28;;;;;;;7.53;2.50;;;23.20;55.00;;;;;;5010974;28;20767;-52
2022/06/15 12:19:04;;;;;;;5.97;2.93;;;23.00;55.00;;;;;;5010380;28;20974;-51
2022/06/15 12:21:37;;;;;;;3.50;2.00;;;23.20;55.30;;;;;;5011077;28;20504;-51
2022/06/15 12:24:10;;;;;;;4.57;2.73;;;23.10;55.50;;;;;;4993017;28;20449;-51
2022/06/15 12:26:44;;;;;;;8.93;2.57;;;23.30;55.60;;;;;;4993425;28;20460;-50
2022/06/15 12:29:23;;;;;;;6.23;2.50;;;23.10;55.40;;;;;;5010053;28;20444;-50
2022/06/15 12:32:08;;;;;;;6.60;2.40;;;23.10;55.40;;;;;;5011004;28;20950;-51
2022/06/15 12:34:46;;;;;;;3.90;2.70;;;23.10;55.30;;;;;;5010957;28;20239;-52
2022/06/15 12:37:26;;;;;;;5.63;2.47;;;23.10;55.30;;;;;;5010804;28;20435;-51
2022/06/15 12:40:03;;;;;;;8.00;6.10;;;23.00;55.30;;;;;;5010903;28;20997;-52
2022/06/15 12:42:30;;;;;;;3.87;2.50;;;23.20;55.20;;;;;;5010677;28;20868;-52
2022/06/15 12:45:01;;;;;;;5.83;3.10;;;23.30;55.30;;;;;;5011257;28;20446;-53
2022/06/15 12:47:30;;;;;;;7.37;3.10;;;23.40;55.40;;;;;;5010983;28;20457;-53
2022/06/15 12:50:30;;;;;;;4.13;2.03;;;23.40;55.00;;;;;;5010336;28;20959;-52
2022/06/15 12:53:07;;;;;;;3.97;2.27;;;23.40;54.80;;;;;;5010893;28;20485;-52
2022/06/15 12:55:38;;;;;;;5.30;2.53;;;23.40;54.90;;;;;;5010722;28;20438;-53
2022/06/15 12:58:16;;;;;;;6.47;2.53;;;23.50;54.60;;;;;;5010716;28;20455;-52
2022/06/15 13:00:48;;;;;;;5.87;2.73;;;23.50;54.40;;;;;;5011285;28;20462;-52
2022/06/15 13:03:28;;;;;;;9.60;2.47;;;23.50;54.30;;;;;;5010814;28;20434;-52
2022/06/15 13:06:19;;;;;;;7.43;2.50;;;23.50;54.20;;;;;;5009980;28;20816;-52
2022/06/15 13:08:48;;;;;;;8.00;3.07;;;23.50;54.20;;;;;;5010220;28;20954;-54
2022/06/15 13:11:17;;;;;;;5.13;2.57;;;23.50;54.30;;;;;;5010339;28;20633;-51
2022/06/15 13:13:48;;;;;;;9.23;2.67;;;23.10;54.10;;;;;;5010882;28;20485;-52
2022/06/15 13:16:30;;;;;;;4.70;2.50;;;23.50;54.40;;;;;;5014358;28;20920;-53
2022/06/15 13:18:57;;;;;;;3.63;3.10;;;23.50;54.30;;;;;;5014410;28;20493;-53
2022/06/15 13:21:26;;;;;;;4.97;2.37;;;23.50;54.20;;;;;;5014054;28;20463;-54
2022/06/15 13:24:04;;;;;;;5.77;2.57;;;23.50;54.10;;;;;;5014006;28;20531;-53
2022/06/15 13:26:52;;;;;;;4.20;2.60;;;23.30;54.10;;;;;;5013877;28;20417;-52
2022/06/15 13:29:23;;;;;;;7.10;2.80;;;23.50;54.40;;;;;;5013496;28;20450;-52